createdAt,value
2019-05-03T00:00:31.951Z,74.40
2019-05-03T00:05:41.880Z,74.30
2019-05-03T00:10:51.689Z,75.40
2019-05-03T00:16:21.819Z,74.50
2019-05-03T00:21:29.584Z,74.70
2019-05-03T00:26:37.922Z,74.50
2019-05-03T00:31:47.028Z,74.40
2019-05-03T00:36:55.792Z,74.20
2019-05-03T00:42:04.808Z,74.10
2019-05-03T00:47:13.878Z,74.00
2019-05-03T00:52:23.120Z,74.00
2019-05-03T00:57:32.477Z,75.20
2019-05-03T01:02:42.329Z,74.10
2019-05-03T01:07:52.388Z,73.70
2019-05-03T01:13:01.691Z,73.80
2019-05-03T01:18:12.334Z,73.00
2019-05-03T01:23:21.938Z,72.40
2019-05-03T01:28:32.342Z,71.90
2019-05-03T01:33:40.336Z,71.80
2019-05-03T01:38:48.641Z,72.00
2019-05-03T01:43:57.237Z,71.30
2019-05-03T01:49:06.920Z,71.60
2019-05-03T01:54:15.319Z,69.80
2019-05-03T01:59:23.620Z,70.20
2019-05-03T02:04:33.004Z,69.80
2019-05-03T02:09:41.711Z,68.80
2019-05-03T02:14:51.583Z,69.30
2019-05-03T02:19:59.009Z,67.70
2019-05-03T02:25:08.513Z,67.70
2019-05-03T02:30:17.115Z,67.50
2019-05-03T02:35:25.005Z,67.60
2019-05-03T02:40:33.870Z,67.30
2019-05-03T02:45:45.702Z,67.00
2019-05-03T02:50:56.028Z,67.90
2019-05-03T02:56:15.019Z,66.50
2019-05-03T03:01:11.797Z,66.40
2019-05-03T03:06:23.048Z,66.50
2019-05-03T03:11:32.160Z,65.30
2019-05-03T03:16:40.833Z,65.20
2019-05-03T03:21:50.510Z,64.00
2019-05-03T03:27:00.222Z,65.00
2019-05-03T03:32:12.086Z,64.90
2019-05-03T03:37:21.077Z,64.60
2019-05-03T03:42:30.753Z,63.10
2019-05-03T03:47:40.073Z,63.70
2019-05-03T03:52:49.258Z,63.50
2019-05-03T03:57:57.638Z,62.50
2019-05-03T04:03:06.315Z,61.70
2019-05-03T04:08:28.213Z,60.70
2019-05-03T04:13:39.231Z,61.30
2019-05-03T04:18:49.289Z,60.60
2019-05-03T04:23:58.183Z,60.90
2019-05-03T04:29:07.529Z,59.80
2019-05-03T04:34:16.366Z,60.00
2019-05-03T04:39:25.554Z,59.10
2019-05-03T04:44:35.761Z,59.50
2019-05-03T04:49:42.771Z,58.40
2019-05-03T04:54:56.025Z,57.60
2019-05-03T05:00:06.008Z,58.20
2019-05-03T05:05:15.337Z,57.80
2019-05-03T05:10:27.804Z,57.60
2019-05-03T05:15:35.715Z,57.30
2019-05-03T05:20:45.390Z,56.70
2019-05-03T05:25:56.825Z,56.30
2019-05-03T05:31:05.363Z,55.80
2019-05-03T05:36:15.346Z,55.10
2019-05-03T05:41:24.502Z,55.20
2019-05-03T05:46:35.072Z,54.30
2019-05-03T05:52:04.909Z,54.10
2019-05-03T05:57:34.639Z,54.10
2019-05-03T06:02:44.699Z,55.30
2019-05-03T06:07:54.827Z,55.20
2019-05-03T06:13:04.915Z,54.10
2019-05-03T06:18:14.646Z,54.10
2019-05-03T06:23:24.776Z,53.90
2019-05-03T06:28:35.316Z,54.40
2019-05-03T06:33:45.050Z,53.70
2019-05-03T06:38:54.648Z,53.10
2019-05-03T06:44:04.250Z,53.10
2019-05-03T06:49:11.664Z,54.00
2019-05-03T06:54:25.446Z,53.90
2019-05-03T06:59:31.173Z,53.80
2019-05-03T07:04:40.494Z,52.80
2019-05-03T07:09:48.713Z,53.40
2019-05-03T07:14:57.209Z,52.90
2019-05-03T07:20:05.527Z,52.50
2019-05-03T07:25:14.964Z,52.80
2019-05-03T07:30:24.765Z,52.50
2019-05-03T07:35:32.447Z,52.60
2019-05-03T07:40:41.168Z,52.60
2019-05-03T07:45:49.130Z,52.80
2019-05-03T07:50:57.985Z,53.00
2019-05-03T07:56:07.659Z,53.10
2019-05-03T08:01:17.659Z,52.40
2019-05-03T08:06:25.739Z,52.40
2019-05-03T08:11:35.187Z,52.10
2019-05-03T08:16:45.482Z,51.70
2019-05-03T08:21:52.992Z,51.60
2019-05-03T08:27:01.469Z,50.70
2019-05-03T08:32:09.668Z,50.30
2019-05-03T08:37:19.907Z,50.20
2019-05-03T08:42:28.098Z,50.60
2019-05-03T08:47:36.195Z,51.20
2019-05-03T08:52:45.345Z,51.20
2019-05-03T08:57:55.146Z,51.60
2019-05-03T09:03:05.553Z,51.30
2019-05-03T09:08:15.738Z,51.50
2019-05-03T09:13:25.132Z,51.40
2019-05-03T09:18:35.118Z,51.60
2019-05-03T09:23:44.955Z,51.50
2019-05-03T09:28:52.540Z,51.50
2019-05-03T09:34:00.607Z,51.60
2019-05-03T09:39:10.074Z,51.30
2019-05-03T09:44:17.841Z,51.20
2019-05-03T09:49:25.916Z,51.30
2019-05-03T09:54:34.806Z,51.70
2019-05-03T09:59:55.760Z,51.60
2019-05-03T10:04:52.698Z,51.70
2019-05-03T10:10:00.842Z,52.10
2019-05-03T10:15:10.961Z,52.00
2019-05-03T10:20:20.989Z,52.90
2019-05-03T10:25:30.094Z,52.90
2019-05-03T10:30:39.488Z,53.60
2019-05-03T10:35:59.810Z,53.60
2019-05-03T10:41:09.042Z,53.50
2019-05-03T10:46:16.300Z,54.70
2019-05-03T10:51:25.034Z,55.30
2019-05-03T10:56:35.750Z,55.50
2019-05-03T11:01:45.294Z,55.20
2019-05-03T11:06:54.943Z,55.80
2019-05-03T11:12:05.318Z,54.70
2019-05-03T11:17:14.747Z,55.50
2019-05-03T11:22:22.552Z,56.60
2019-05-03T11:27:31.480Z,56.40
2019-05-03T11:32:40.943Z,56.40
2019-05-03T11:37:49.989Z,56.70
2019-05-03T11:42:59.177Z,57.30
2019-05-03T11:48:07.754Z,57.50
2019-05-03T11:53:17.660Z,57.60
2019-05-03T11:58:27.248Z,58.30
2019-05-03T12:03:36.599Z,59.00
2019-05-03T12:08:44.751Z,59.90
2019-05-03T12:14:02.411Z,59.80
2019-05-03T12:19:15.724Z,59.90
2019-05-03T12:24:11.660Z,59.50
2019-05-03T12:29:20.282Z,59.20
2019-05-03T12:34:28.080Z,58.30
2019-05-03T12:39:36.538Z,58.40
2019-05-03T12:44:45.900Z,58.20
2019-05-03T12:50:15.652Z,58.70
2019-05-03T12:55:25.792Z,58.90
2019-05-03T13:00:36.855Z,58.70
2019-05-03T13:05:44.950Z,59.00
2019-05-03T13:10:52.591Z,59.50
2019-05-03T13:16:04.476Z,59.60
2019-05-03T13:21:17.143Z,58.80
2019-05-03T13:26:25.411Z,59.10
2019-05-03T13:31:34.686Z,59.30
2019-05-03T13:36:45.476Z,58.80
2019-05-03T13:41:51.495Z,59.80
2019-05-03T13:46:58.436Z,60.40
2019-05-03T13:52:06.828Z,60.30
2019-05-03T13:57:15.802Z,60.60
2019-05-03T14:02:26.800Z,61.00
2019-05-03T14:07:35.324Z,61.30
2019-05-03T14:12:45.353Z,61.60
2019-05-03T14:17:52.494Z,61.80
2019-05-03T14:23:02.281Z,62.90
2019-05-03T14:28:16.083Z,63.50
2019-05-03T14:33:18.629Z,63.40
2019-05-03T14:38:28.204Z,63.80
2019-05-03T14:43:37.249Z,64.60
2019-05-03T14:48:46.057Z,65.40
2019-05-03T14:53:57.763Z,65.20
2019-05-03T14:59:07.604Z,66.10
2019-05-03T15:04:15.290Z,65.70
2019-05-03T15:09:25.148Z,66.90
2019-05-03T15:14:34.600Z,65.50
2019-05-03T15:19:46.532Z,65.70
2019-05-03T15:24:54.563Z,66.10
2019-05-03T15:30:04.965Z,66.40
2019-05-03T15:35:15.075Z,66.80
2019-05-03T15:40:22.284Z,68.00
2019-05-03T15:45:31.954Z,67.20
2019-05-03T15:50:39.460Z,67.60
2019-05-03T15:55:49.197Z,67.80
2019-05-03T16:00:56.540Z,68.00
2019-05-03T16:06:06.778Z,68.50
2019-05-03T16:11:15.498Z,68.50
2019-05-03T16:16:24.676Z,68.40
2019-05-03T16:21:34.179Z,68.60
2019-05-03T16:26:44.550Z,69.10
2019-05-03T16:31:51.854Z,69.10
2019-05-03T16:36:58.859Z,68.70
2019-05-03T16:42:06.830Z,67.90
2019-05-03T16:47:15.662Z,67.70
2019-05-03T16:52:45.548Z,67.40
2019-05-03T16:57:54.931Z,67.50
2019-05-03T17:03:02.207Z,67.60
2019-05-03T17:08:11.515Z,67.60
2019-05-03T17:13:19.303Z,67.70
2019-05-03T17:18:27.740Z,67.90
2019-05-03T17:23:35.963Z,68.20
2019-05-03T17:28:44.797Z,68.50
2019-05-03T17:33:54.504Z,68.50
2019-05-03T17:39:04.359Z,68.50
2019-05-03T17:44:14.439Z,68.70
2019-05-03T17:49:22.344Z,68.60
2019-05-03T17:54:30.278Z,68.80
2019-05-03T17:59:39.410Z,68.20
2019-05-03T18:04:48.675Z,68.10
2019-05-03T18:09:57.077Z,68.00
2019-05-03T18:15:25.118Z,68.10
2019-05-03T18:20:34.486Z,68.30
2019-05-03T18:25:41.618Z,68.50
2019-05-03T18:30:50.421Z,68.70
2019-05-03T18:35:58.824Z,69.20
2019-05-03T18:41:06.850Z,69.50
2019-05-03T18:46:16.423Z,70.00
2019-05-03T18:51:25.244Z,70.30
2019-05-03T18:56:34.671Z,70.80
2019-05-03T19:01:42.352Z,70.80
2019-05-03T19:07:02.059Z,71.00
2019-05-03T19:12:00.328Z,71.20
2019-05-03T19:17:09.246Z,71.30
2019-05-03T19:22:16.448Z,71.80
2019-05-03T19:27:25.163Z,72.10
2019-05-03T19:32:35.633Z,72.10
2019-05-03T19:37:46.387Z,72.30
2019-05-03T19:42:52.145Z,72.60
2019-05-03T19:48:00.028Z,72.70
2019-05-03T19:53:09.088Z,72.50
2019-05-03T19:58:16.619Z,72.60
2019-05-03T20:03:25.767Z,72.80
2019-05-03T20:08:35.194Z,72.90
2019-05-03T20:13:44.975Z,72.40
2019-05-03T20:18:52.431Z,72.00
2019-05-03T20:24:00.411Z,72.20
2019-05-03T20:29:08.324Z,72.40
2019-05-03T20:39:48.438Z,72.40
2019-05-03T20:44:56.755Z,72.50
2019-05-03T20:50:08.192Z,72.30
2019-05-03T20:55:17.641Z,72.50
2019-05-03T21:00:26.377Z,72.60
2019-05-03T21:05:35.387Z,72.70
2019-05-03T21:10:44.555Z,73.00
2019-05-03T21:15:52.805Z,73.20
2019-05-03T21:21:01.692Z,73.30
2019-05-03T21:26:13.378Z,73.60
2019-05-03T21:31:51.269Z,74.20
2019-05-03T21:36:59.641Z,74.40
2019-05-03T21:42:07.317Z,74.20
2019-05-03T21:47:16.967Z,74.50
2019-05-03T21:52:25.367Z,74.50
2019-05-03T21:57:34.463Z,74.80
2019-05-03T22:02:43.214Z,75.20
2019-05-03T22:07:51.109Z,75.40
2019-05-03T22:12:59.398Z,75.70
2019-05-03T22:18:07.682Z,76.10
2019-05-03T22:23:16.680Z,77.00
2019-05-03T22:28:24.629Z,76.30
2019-05-03T22:33:32.811Z,76.80
2019-05-03T22:38:40.530Z,76.80
2019-05-03T22:43:49.206Z,77.00
2019-05-03T22:48:57.143Z,76.90
2019-05-03T22:54:05.449Z,76.80
2019-05-03T22:59:14.749Z,77.10
2019-05-03T23:04:25.331Z,77.60
2019-05-03T23:09:32.756Z,77.70
2019-05-03T23:14:54.983Z,77.90
2019-05-03T23:20:04.518Z,77.40
2019-05-03T23:25:11.561Z,77.10
2019-05-03T23:35:50.897Z,77.10
2019-05-03T23:41:00.239Z,77.50
2019-05-03T23:46:08.096Z,78.20
2019-05-03T23:51:17.440Z,78.20
2019-05-03T23:56:25.422Z,78.50
